createdAt,value
2023-05-05T00:00:07.011Z,17.50
2023-05-05T00:01:06.879Z,17.49
2023-05-05T00:02:06.919Z,17.50
2023-05-05T00:03:06.939Z,17.38
2023-05-05T00:04:07.008Z,17.49
2023-05-05T00:05:07.022Z,17.46
2023-05-05T00:06:07.101Z,17.30
2023-05-05T00:07:07.154Z,17.30
2023-05-05T00:08:07.155Z,17.46
2023-05-05T00:09:07.244Z,17.39
2023-05-05T00:10:07.476Z,17.39
2023-05-05T00:11:07.300Z,17.47
2023-05-05T00:12:07.319Z,17.22
2023-05-05T00:13:07.434Z,17.28
2023-05-05T00:14:07.344Z,17.13
2023-05-05T00:15:07.408Z,17.22
2023-05-05T00:16:07.451Z,17.19
2023-05-05T00:17:07.487Z,17.13
2023-05-05T00:18:07.637Z,17.30
2023-05-05T00:19:07.565Z,17.17
2023-05-05T00:20:07.951Z,17.22
2023-05-05T00:21:07.621Z,17.23
2023-05-05T00:22:07.615Z,17.24
2023-05-05T00:23:07.659Z,17.19
2023-05-05T00:24:07.677Z,17.12
2023-05-05T00:25:07.703Z,17.30
2023-05-05T00:26:07.728Z,17.34
2023-05-05T00:27:07.763Z,17.37
2023-05-05T00:28:07.748Z,17.30
2023-05-05T00:29:07.809Z,17.17
2023-05-05T00:30:08.174Z,17.22
2023-05-05T00:31:07.873Z,17.19
2023-05-05T00:32:07.863Z,17.34
2023-05-05T00:33:07.868Z,17.12
2023-05-05T00:34:07.945Z,17.14
2023-05-05T00:35:07.998Z,17.17
2023-05-05T00:36:08.030Z,17.41
2023-05-05T00:37:08.054Z,17.24
2023-05-05T00:38:08.062Z,17.07
2023-05-05T00:39:08.095Z,17.12
2023-05-05T00:40:08.337Z,17.19
2023-05-05T00:41:08.224Z,17.35
2023-05-05T00:42:08.195Z,17.41
2023-05-05T00:43:08.255Z,17.10
2023-05-05T00:44:08.305Z,17.05
2023-05-05T00:45:08.299Z,17.23
2023-05-05T00:46:08.385Z,17.19
2023-05-05T00:47:08.394Z,16.91
2023-05-05T00:48:08.441Z,16.92
2023-05-05T00:49:08.531Z,16.97
2023-05-05T00:50:08.722Z,17.07
2023-05-05T00:51:08.574Z,17.02
2023-05-05T00:52:08.629Z,16.87
2023-05-05T00:53:08.662Z,17.04
2023-05-05T00:54:08.682Z,16.92
2023-05-05T00:55:08.679Z,16.84
2023-05-05T00:56:08.750Z,16.89
2023-05-05T00:57:08.759Z,16.83
2023-05-05T00:58:08.840Z,16.79
2023-05-05T00:59:08.863Z,16.83
2023-05-05T01:00:09.093Z,16.79
2023-05-05T01:01:09.026Z,16.62
2023-05-05T01:02:08.975Z,16.69
2023-05-05T01:03:09.207Z,16.65
2023-05-05T01:04:09.046Z,16.74
2023-05-05T01:05:09.098Z,16.87
2023-05-05T01:06:09.113Z,16.82
2023-05-05T01:07:09.122Z,16.77
2023-05-05T01:08:09.155Z,16.89
2023-05-05T01:09:09.168Z,16.87
2023-05-05T01:10:19.545Z,16.76
2023-05-05T01:11:09.217Z,16.77
2023-05-05T01:12:09.245Z,17.01
2023-05-05T01:13:09.406Z,16.92
2023-05-05T01:14:09.300Z,16.92
2023-05-05T01:15:09.325Z,16.76
2023-05-05T01:16:09.333Z,16.89
2023-05-05T01:17:09.354Z,16.84
2023-05-05T01:18:09.374Z,16.97
2023-05-05T01:19:09.386Z,17.09
2023-05-05T01:20:09.593Z,16.99
2023-05-05T01:21:09.441Z,17.01
2023-05-05T01:22:09.436Z,16.84
2023-05-05T01:23:09.480Z,17.01
2023-05-05T01:24:09.522Z,17.16
2023-05-05T01:25:09.520Z,17.05
2023-05-05T01:29:01.572Z,16.92
2023-05-05T01:38:37.401Z,16.74
2023-05-05T01:52:31.259Z,16.98
2023-05-05T01:53:31.357Z,16.79
2023-05-05T01:54:31.290Z,16.64
2023-05-05T01:55:31.390Z,16.58
2023-05-05T01:56:31.382Z,16.44
2023-05-05T01:57:31.451Z,16.58
2023-05-05T01:58:31.433Z,16.77
2023-05-05T01:59:31.448Z,16.80
2023-05-05T02:00:31.503Z,16.51
2023-05-05T02:01:31.589Z,16.58
2023-05-05T02:02:31.655Z,16.50
2023-05-05T02:03:31.639Z,16.59
2023-05-05T02:04:31.612Z,16.36
2023-05-05T02:05:31.639Z,16.50
2023-05-05T02:06:31.646Z,16.58
2023-05-05T02:07:31.667Z,16.57
2023-05-05T02:08:31.697Z,16.72
2023-05-05T02:09:31.754Z,16.68
2023-05-05T02:10:31.794Z,16.62
2023-05-05T02:11:31.807Z,16.77
2023-05-05T02:12:31.892Z,16.95
2023-05-05T02:13:31.920Z,17.01
2023-05-05T02:14:31.918Z,16.84
2023-05-05T02:15:31.976Z,16.69
2023-05-05T02:16:31.982Z,16.66
2023-05-05T02:17:32.087Z,16.57
2023-05-05T02:18:32.076Z,16.50
2023-05-05T02:19:32.090Z,16.57
2023-05-05T02:20:32.108Z,16.46
2023-05-05T02:22:58.098Z,16.54
2023-05-05T02:23:58.187Z,16.59
2023-05-05T02:24:58.204Z,16.57
2023-05-05T02:25:58.264Z,16.58
2023-05-05T02:26:58.296Z,16.50
2023-05-05T02:27:58.330Z,16.59
2023-05-05T02:28:58.311Z,16.68
2023-05-05T02:29:58.367Z,16.58
2023-05-05T02:30:58.396Z,16.69
2023-05-05T02:31:58.403Z,16.61
2023-05-05T02:32:58.436Z,16.79
2023-05-05T02:33:58.451Z,16.84
2023-05-05T02:34:58.461Z,16.80
2023-05-05T02:35:58.463Z,16.80
2023-05-05T02:36:58.507Z,16.44
2023-05-05T02:37:58.520Z,16.64
2023-05-05T02:38:58.619Z,16.51
2023-05-05T02:39:58.679Z,16.40
2023-05-05T02:40:58.674Z,16.44
2023-05-05T02:41:58.711Z,16.54
2023-05-05T02:42:58.767Z,16.57
2023-05-05T02:43:58.739Z,16.41
2023-05-05T02:44:58.700Z,16.36
2023-05-05T02:45:58.750Z,16.44
2023-05-05T02:46:58.767Z,16.46
2023-05-05T02:47:58.829Z,16.58
2023-05-05T02:48:58.789Z,16.37
2023-05-05T02:49:58.822Z,16.51
2023-05-05T02:50:58.840Z,16.64
2023-05-05T02:51:58.853Z,16.54
2023-05-05T02:52:58.867Z,16.39
2023-05-05T02:53:58.868Z,16.13
2023-05-05T02:54:58.927Z,16.22
2023-05-05T02:55:58.954Z,16.18
2023-05-05T02:56:58.966Z,16.25
2023-05-05T02:57:58.946Z,16.24
2023-05-05T02:58:58.986Z,16.12
2023-05-05T02:59:58.996Z,16.09
2023-05-05T03:00:59.038Z,16.21
2023-05-05T03:01:59.146Z,16.28
2023-05-05T03:02:59.156Z,16.17
2023-05-05T03:03:59.116Z,16.17
2023-05-05T03:04:59.057Z,16.18
2023-05-05T03:05:59.106Z,16.06
2023-05-05T03:06:59.115Z,16.24
2023-05-05T03:07:59.194Z,16.26
2023-05-05T03:08:59.249Z,16.26
2023-05-05T03:09:59.280Z,16.37
2023-05-05T03:10:59.296Z,16.34
2023-05-05T03:11:59.319Z,16.40
2023-05-05T03:12:59.370Z,16.39
2023-05-05T03:13:59.347Z,16.18
2023-05-05T03:14:59.375Z,16.12
2023-05-05T03:15:59.448Z,16.37
2023-05-05T03:16:59.430Z,16.39
2023-05-05T03:17:59.500Z,16.39
2023-05-05T03:18:59.456Z,16.22
2023-05-05T03:20:00.525Z,16.18
2023-05-05T03:20:59.451Z,16.18
2023-05-05T03:21:59.537Z,16.18
2023-05-05T03:22:59.599Z,16.40
2023-05-05T03:23:59.586Z,16.51
2023-05-05T03:24:59.600Z,16.50
2023-05-05T03:25:59.656Z,16.31
2023-05-05T03:26:59.658Z,16.13
2023-05-05T03:27:59.730Z,16.16
2023-05-05T03:28:59.686Z,15.98
2023-05-05T03:29:59.730Z,15.85
2023-05-05T03:30:59.782Z,15.78
2023-05-05T03:31:59.867Z,15.94
2023-05-05T03:32:59.889Z,15.94
2023-05-05T03:33:59.895Z,15.85
2023-05-05T03:34:59.931Z,16.02
2023-05-05T03:35:59.972Z,15.84
2023-05-05T03:37:00.032Z,15.81
2023-05-05T03:38:00.037Z,15.80
2023-05-05T03:39:00.059Z,15.83
2023-05-05T03:40:00.126Z,15.91
2023-05-05T03:41:00.132Z,15.88
2023-05-05T03:42:00.160Z,15.84
2023-05-05T03:43:00.156Z,15.81
2023-05-05T03:44:00.192Z,15.87
2023-05-05T03:45:00.195Z,15.80
2023-05-05T03:46:00.185Z,15.80
2023-05-05T03:47:00.182Z,15.99
2023-05-05T03:48:00.263Z,16.09
2023-05-05T03:49:02.837Z,16.12
2023-05-05T03:50:00.365Z,16.08
2023-05-05T03:52:31.886Z,16.28
2023-05-05T03:53:31.524Z,16.17
2023-05-05T03:54:31.548Z,15.98
2023-05-05T03:55:31.772Z,16.05
2023-05-05T03:56:31.681Z,16.08
2023-05-05T03:57:31.694Z,16.02
2023-05-05T03:58:31.755Z,16.13
2023-05-05T03:59:32.699Z,16.17
2023-05-05T04:00:31.794Z,16.31
2023-05-05T04:01:31.846Z,16.22
2023-05-05T04:02:31.912Z,16.26
2023-05-05T04:03:31.982Z,16.32
2023-05-05T04:04:32.045Z,16.00
2023-05-05T04:05:31.964Z,15.90
2023-05-05T04:06:31.997Z,15.90
2023-05-05T04:07:31.958Z,15.88
2023-05-05T04:08:32.030Z,15.80
2023-05-05T04:09:32.065Z,15.83
2023-05-05T04:10:32.175Z,15.75
2023-05-05T04:11:32.203Z,15.96
2023-05-05T04:12:32.219Z,15.81
2023-05-05T04:13:32.184Z,16.00
2023-05-05T04:14:32.281Z,16.08
2023-05-05T04:15:32.303Z,16.21
2023-05-05T04:16:32.296Z,15.98
2023-05-05T04:17:32.328Z,16.06
2023-05-05T04:18:32.298Z,16.10
2023-05-05T04:19:32.287Z,16.13
2023-05-05T04:20:32.375Z,15.98
2023-05-05T04:21:32.342Z,15.85
2023-05-05T04:22:32.415Z,15.73
2023-05-05T04:23:32.380Z,15.59
2023-05-05T04:24:32.474Z,15.50
2023-05-05T04:25:32.580Z,15.70
2023-05-05T04:26:32.612Z,15.59
2023-05-05T04:27:32.644Z,15.54
2023-05-05T04:28:35.258Z,15.63
2023-05-05T04:29:34.447Z,15.65
2023-05-05T04:30:42.225Z,15.69
2023-05-05T04:31:32.744Z,15.75
2023-05-05T04:32:32.783Z,15.85
2023-05-05T04:33:32.733Z,15.75
2023-05-05T04:34:32.752Z,15.54
2023-05-05T04:35:32.811Z,15.45
2023-05-05T04:36:32.834Z,15.55
2023-05-05T04:37:32.883Z,15.57
2023-05-05T04:38:33.137Z,15.57
2023-05-05T04:39:33.005Z,15.69
2023-05-05T04:40:33.069Z,15.60
2023-05-05T04:41:33.063Z,15.66
2023-05-05T04:42:33.080Z,15.69
2023-05-05T04:43:33.105Z,15.67
2023-05-05T04:44:33.124Z,15.72
2023-05-05T04:45:33.160Z,15.80
2023-05-05T04:46:33.235Z,15.66
2023-05-05T04:47:33.221Z,15.69
2023-05-05T04:48:33.265Z,15.84
2023-05-05T04:49:33.293Z,15.78
2023-05-05T04:50:33.357Z,15.83
2023-05-05T04:51:33.386Z,15.83
2023-05-05T04:52:33.433Z,15.75
2023-05-05T04:53:33.474Z,15.66
2023-05-05T04:54:33.445Z,15.69
2023-05-05T04:55:33.488Z,15.87
2023-05-05T04:56:33.606Z,15.90
2023-05-05T04:57:33.639Z,16.03
2023-05-05T04:58:33.665Z,15.91
2023-05-05T04:59:33.652Z,16.09
2023-05-05T05:00:33.656Z,16.12
2023-05-05T05:01:35.182Z,15.99
2023-05-05T05:02:33.926Z,16.12
2023-05-05T05:03:33.925Z,16.03
2023-05-05T05:04:33.860Z,16.31
2023-05-05T05:05:33.906Z,16.49
2023-05-05T05:06:33.827Z,16.59
2023-05-05T05:07:33.897Z,16.64
2023-05-05T05:08:33.944Z,16.57
2023-05-05T05:09:33.986Z,16.50
2023-05-05T05:10:33.997Z,16.46
2023-05-05T05:11:33.966Z,16.98
2023-05-05T05:12:34.051Z,17.20
2023-05-05T05:13:34.005Z,17.76
2023-05-05T05:14:34.065Z,17.69
2023-05-05T05:15:34.098Z,17.17
2023-05-05T05:16:34.189Z,16.95
2023-05-05T05:17:34.139Z,16.95
2023-05-05T05:18:34.156Z,17.10
2023-05-05T05:19:34.221Z,17.53
2023-05-05T05:22:00.240Z,18.31
2023-05-05T05:23:00.301Z,18.31
2023-05-05T05:24:00.323Z,17.69
2023-05-05T05:25:00.401Z,17.63
2023-05-05T05:26:00.430Z,17.71
2023-05-05T05:27:00.471Z,17.72
2023-05-05T05:28:09.604Z,17.76
2023-05-05T05:29:00.489Z,17.75
2023-05-05T05:30:00.473Z,17.80
2023-05-05T05:31:00.559Z,17.79
2023-05-05T05:32:00.604Z,17.68
2023-05-05T05:33:00.607Z,17.57
2023-05-05T05:34:00.610Z,17.88
2023-05-05T05:35:00.677Z,18.30
2023-05-05T05:36:00.636Z,18.13
2023-05-05T05:37:00.801Z,17.88
2023-05-05T05:38:00.728Z,17.69
2023-05-05T05:39:00.728Z,17.90
2023-05-05T05:40:00.793Z,18.08
2023-05-05T05:41:00.778Z,18.43
2023-05-05T05:42:00.840Z,18.31
2023-05-05T05:43:00.910Z,17.91
2023-05-05T05:44:00.917Z,17.50
2023-05-05T05:45:00.930Z,17.24
2023-05-05T05:46:01.019Z,17.23
2023-05-05T05:47:00.990Z,17.22
2023-05-05T05:48:00.999Z,17.13
2023-05-05T05:50:40.026Z,17.09
2023-05-05T05:51:33.645Z,17.05
2023-05-05T05:52:33.681Z,17.09
2023-05-05T05:53:33.581Z,17.37
2023-05-05T05:54:33.851Z,17.34
2023-05-05T05:55:33.896Z,17.20
2023-05-05T05:56:33.739Z,16.97
2023-05-05T05:57:33.702Z,16.91
2023-05-05T05:58:33.755Z,16.91
2023-05-05T05:59:33.933Z,16.61
2023-05-05T06:00:33.734Z,16.66
2023-05-05T06:01:33.944Z,16.58
2023-05-05T06:02:33.917Z,16.69
2023-05-05T06:03:33.996Z,16.76
2023-05-05T06:04:33.939Z,16.76
2023-05-05T06:05:33.968Z,16.69
2023-05-05T06:06:33.998Z,16.44
2023-05-05T06:07:33.987Z,16.62
2023-05-05T06:08:34.128Z,16.74
2023-05-05T06:09:34.248Z,16.79
2023-05-05T06:10:34.533Z,16.95
2023-05-05T06:11:34.156Z,16.95
2023-05-05T06:12:34.228Z,17.04
2023-05-05T06:13:34.272Z,16.64
2023-05-05T06:14:34.403Z,16.59
2023-05-05T06:15:34.454Z,16.86
2023-05-05T06:16:34.514Z,16.87
2023-05-05T06:17:34.519Z,16.99
2023-05-05T06:18:34.494Z,17.07
2023-05-05T06:19:34.574Z,17.17
2023-05-05T06:20:34.586Z,17.07
2023-05-05T06:21:34.581Z,16.98
2023-05-05T06:22:34.594Z,16.86
2023-05-05T06:23:34.768Z,16.92
2023-05-05T06:24:34.604Z,17.02
2023-05-05T06:25:34.617Z,17.12
2023-05-05T06:26:34.602Z,17.59
2023-05-05T06:27:34.697Z,18.53
2023-05-05T06:28:34.658Z,19.39
2023-05-05T06:29:34.741Z,19.94
2023-05-05T06:30:34.740Z,19.96
2023-05-05T06:31:34.772Z,19.59
2023-05-05T06:32:34.809Z,19.41
2023-05-05T06:33:34.756Z,19.35
2023-05-05T06:34:34.755Z,19.72
2023-05-05T06:35:34.817Z,20.14
2023-05-05T06:36:34.926Z,20.18
2023-05-05T06:37:34.919Z,20.44
2023-05-05T06:38:34.916Z,20.50
2023-05-05T06:39:34.936Z,20.33
2023-05-05T06:40:34.981Z,20.71
2023-05-05T06:41:35.036Z,21.35
2023-05-05T06:42:35.019Z,22.01
2023-05-05T06:43:35.004Z,22.41
2023-05-05T06:44:35.010Z,21.63
2023-05-05T06:45:35.059Z,20.77
2023-05-05T06:46:35.126Z,20.63
2023-05-05T06:47:35.171Z,20.30
2023-05-05T06:48:35.217Z,19.67
2023-05-05T06:49:35.259Z,19.26
2023-05-05T06:50:36.156Z,18.79
2023-05-05T06:51:35.285Z,18.45
2023-05-05T06:52:35.307Z,18.49
2023-05-05T06:53:35.377Z,18.58
2023-05-05T06:54:35.425Z,18.60
2023-05-05T06:55:35.448Z,18.33
2023-05-05T06:56:35.492Z,18.46
2023-05-05T06:57:35.532Z,18.48
2023-05-05T06:58:35.585Z,18.18
2023-05-05T06:59:35.631Z,17.97
2023-05-05T07:00:35.660Z,17.76
2023-05-05T07:01:35.694Z,17.94
2023-05-05T07:02:35.808Z,17.95
2023-05-05T07:03:35.836Z,17.76
2023-05-05T07:04:35.792Z,17.60
2023-05-05T07:05:35.838Z,17.53
2023-05-05T07:06:35.932Z,17.38
2023-05-05T07:07:35.888Z,17.39
2023-05-05T07:08:35.907Z,17.53
2023-05-05T07:09:35.947Z,17.47
2023-05-05T07:10:35.994Z,17.44
2023-05-05T07:11:36.081Z,17.32
2023-05-05T07:12:36.172Z,17.27
2023-05-05T07:13:36.089Z,16.87
2023-05-05T07:14:36.139Z,16.26
2023-05-05T07:15:36.143Z,15.87
2023-05-05T07:16:36.226Z,15.52
2023-05-05T07:17:36.214Z,15.23
2023-05-05T07:18:36.190Z,15.32
2023-05-05T07:19:36.230Z,15.44
2023-05-05T07:20:36.261Z,15.55
2023-05-05T07:21:36.271Z,15.50
2023-05-05T07:22:36.276Z,15.57
2023-05-05T07:23:36.379Z,15.52
2023-05-05T07:24:36.380Z,15.55
2023-05-05T07:25:36.386Z,15.65
2023-05-05T07:26:36.401Z,15.65
2023-05-05T07:27:36.390Z,15.70
2023-05-05T07:28:36.441Z,15.65
2023-05-05T07:29:36.495Z,15.69
2023-05-05T07:30:36.537Z,15.83
2023-05-05T07:31:36.535Z,15.92
2023-05-05T07:32:36.563Z,15.99
2023-05-05T07:33:36.568Z,15.98
2023-05-05T07:34:36.539Z,15.90
2023-05-05T07:35:36.556Z,16.02
2023-05-05T07:36:36.589Z,16.03
2023-05-05T07:37:36.697Z,16.10
2023-05-05T07:38:36.646Z,16.18
2023-05-05T07:39:36.677Z,16.26
2023-05-05T07:40:36.659Z,16.21
2023-05-05T07:41:36.663Z,16.36
2023-05-05T07:42:36.720Z,16.44
2023-05-05T07:43:37.908Z,16.54
2023-05-05T07:44:36.801Z,16.40
2023-05-05T07:45:36.900Z,16.31
2023-05-05T07:46:36.894Z,16.37
2023-05-05T07:47:36.886Z,16.34
2023-05-05T07:48:36.953Z,16.36
2023-05-05T07:49:36.946Z,16.40
2023-05-05T07:50:36.945Z,16.43
2023-05-05T07:51:36.965Z,16.51
2023-05-05T07:52:44.986Z,16.64
2023-05-05T07:53:37.061Z,16.43
2023-05-05T07:54:37.083Z,16.44
2023-05-05T07:55:37.091Z,16.25
2023-05-05T07:56:37.131Z,16.31
2023-05-05T07:57:37.147Z,16.36
2023-05-05T07:58:37.196Z,16.41
2023-05-05T07:59:37.222Z,16.46
2023-05-05T08:00:37.258Z,16.55
2023-05-05T08:01:37.276Z,16.65
2023-05-05T08:02:37.355Z,16.68
2023-05-05T08:03:37.596Z,16.74
2023-05-05T08:04:37.409Z,16.73
2023-05-05T08:05:37.408Z,16.76
2023-05-05T08:06:37.456Z,16.69
2023-05-05T08:07:37.450Z,16.82
2023-05-05T08:08:37.472Z,16.89
2023-05-05T08:09:37.528Z,16.84
2023-05-05T08:10:37.567Z,16.86
2023-05-05T08:11:37.511Z,17.05
2023-05-05T08:12:37.606Z,17.23
2023-05-05T08:13:37.568Z,17.31
2023-05-05T08:14:37.692Z,17.30
2023-05-05T08:15:37.601Z,17.42
2023-05-05T08:16:37.670Z,17.53
2023-05-05T08:17:37.718Z,17.68
2023-05-05T08:18:37.753Z,17.73
2023-05-05T08:19:37.768Z,17.79
2023-05-05T08:20:37.770Z,17.86
2023-05-05T08:21:37.808Z,18.03
2023-05-05T08:22:37.807Z,18.23
2023-05-05T08:23:37.871Z,18.41
2023-05-05T08:24:37.892Z,18.61
2023-05-05T08:25:37.966Z,18.82
2023-05-05T08:26:37.990Z,18.98
2023-05-05T08:27:38.085Z,19.15
2023-05-05T08:28:38.035Z,19.38
2023-05-05T08:29:38.144Z,19.30
2023-05-05T08:30:38.225Z,19.27
2023-05-05T08:31:38.325Z,19.19
2023-05-05T08:32:38.322Z,19.63
2023-05-05T08:33:38.220Z,20.08
2023-05-05T08:34:38.236Z,20.24
2023-05-05T08:35:38.263Z,20.33
2023-05-05T08:36:38.277Z,20.34
2023-05-05T08:37:38.290Z,20.39
2023-05-05T08:38:38.331Z,20.50
2023-05-05T08:39:38.397Z,20.33
2023-05-05T08:40:38.464Z,20.24
2023-05-05T08:41:38.488Z,20.11
2023-05-05T08:42:39.604Z,20.33
2023-05-05T08:43:38.501Z,20.48
2023-05-05T08:44:38.579Z,20.73
2023-05-05T08:45:38.492Z,20.96
2023-05-05T08:46:38.635Z,21.10
2023-05-05T08:47:38.600Z,21.19
2023-05-05T08:48:38.629Z,21.28
2023-05-05T08:49:38.719Z,21.07
2023-05-05T08:50:38.704Z,21.00
2023-05-05T08:51:38.735Z,21.04
2023-05-05T08:52:38.786Z,20.98
2023-05-05T08:53:38.814Z,20.78
2023-05-05T08:54:38.894Z,21.17
2023-05-05T08:55:38.897Z,21.25
2023-05-05T08:56:39.071Z,21.45
2023-05-05T08:57:38.910Z,21.66
2023-05-05T08:58:38.884Z,21.97
2023-05-05T08:59:38.879Z,21.85
2023-05-05T09:00:38.957Z,21.77
2023-05-05T09:01:38.993Z,21.53
2023-05-05T09:02:39.031Z,21.51
2023-05-05T09:03:39.010Z,20.93
2023-05-05T09:04:38.961Z,20.77
2023-05-05T09:05:39.039Z,20.89
2023-05-05T09:06:39.102Z,20.78
2023-05-05T09:07:39.103Z,20.92
2023-05-05T09:08:39.178Z,21.80
2023-05-05T09:09:39.177Z,22.84
2023-05-05T09:10:39.221Z,23.91
2023-05-05T09:11:39.323Z,24.78
2023-05-05T09:12:39.346Z,25.44
2023-05-05T09:13:39.371Z,25.89
2023-05-05T09:14:39.442Z,26.19
2023-05-05T09:15:39.386Z,25.78
2023-05-05T09:16:39.448Z,25.33
2023-05-05T09:17:39.581Z,25.26
2023-05-05T09:18:39.502Z,25.49
2023-05-05T09:19:39.485Z,25.30
2023-05-05T09:20:39.552Z,25.18
2023-05-05T09:21:39.660Z,24.78
2023-05-05T09:22:39.676Z,23.74
2023-05-05T09:23:39.694Z,23.51
2023-05-05T09:24:39.687Z,24.04
2023-05-05T09:25:39.703Z,24.93
2023-05-05T09:26:39.696Z,25.41
2023-05-05T09:27:39.712Z,25.88
2023-05-05T09:28:39.701Z,26.29
2023-05-05T09:29:39.701Z,26.30
2023-05-05T09:30:39.722Z,25.80
2023-05-05T09:31:39.693Z,25.44
2023-05-05T09:32:39.751Z,25.12
2023-05-05T09:33:39.767Z,25.11
2023-05-05T09:34:39.822Z,24.88
2023-05-05T09:35:39.824Z,25.18
2023-05-05T09:36:39.828Z,25.19
2023-05-05T09:37:39.833Z,25.19
2023-05-05T09:38:39.876Z,25.16
2023-05-05T09:39:39.866Z,25.41
2023-05-05T09:40:39.895Z,25.54
2023-05-05T09:41:39.888Z,25.46
2023-05-05T09:42:39.969Z,25.14
2023-05-05T09:43:39.982Z,25.11
2023-05-05T09:44:40.002Z,25.56
2023-05-05T09:45:40.046Z,25.25
2023-05-05T09:46:40.166Z,24.56
2023-05-05T09:47:40.170Z,24.77
2023-05-05T09:48:40.191Z,23.86
2023-05-05T09:49:40.193Z,24.11
2023-05-05T09:50:40.204Z,25.11
2023-05-05T09:51:40.198Z,25.91
2023-05-05T09:52:40.273Z,26.53
2023-05-05T09:53:40.270Z,26.59
2023-05-05T09:54:40.285Z,26.34
2023-05-05T09:55:40.302Z,26.59
2023-05-05T09:56:40.316Z,26.83
2023-05-05T09:57:40.300Z,27.15
2023-05-05T09:58:40.318Z,27.29
2023-05-05T09:59:40.323Z,27.10
2023-05-05T10:00:40.419Z,27.23
2023-05-05T10:01:40.448Z,27.35
2023-05-05T10:02:40.444Z,27.01
2023-05-05T10:03:40.436Z,27.11
2023-05-05T10:04:40.460Z,27.57
2023-05-05T10:05:40.454Z,28.08
2023-05-05T10:06:40.428Z,28.09
2023-05-05T10:07:40.476Z,27.67
2023-05-05T10:08:40.486Z,27.29
2023-05-05T10:09:40.553Z,27.41
2023-05-05T10:10:40.555Z,27.78
2023-05-05T10:11:40.543Z,28.28
2023-05-05T10:12:40.610Z,28.46
2023-05-05T10:13:40.625Z,28.31
2023-05-05T10:14:40.619Z,27.85
2023-05-05T10:15:40.626Z,28.41
2023-05-05T10:16:40.723Z,28.56
2023-05-05T10:17:42.558Z,27.58
2023-05-05T10:18:40.668Z,26.97
2023-05-05T10:19:40.699Z,26.53
2023-05-05T10:20:40.725Z,26.46
2023-05-05T10:21:42.050Z,26.49
2023-05-05T10:22:40.845Z,26.70
2023-05-05T10:23:40.874Z,27.52
2023-05-05T10:24:40.926Z,27.30
2023-05-05T10:25:40.949Z,26.79
2023-05-05T10:26:40.989Z,26.91
2023-05-05T10:27:41.064Z,27.35
2023-05-05T10:28:41.072Z,27.76
2023-05-05T10:29:41.088Z,28.04
2023-05-05T10:30:41.113Z,28.08
2023-05-05T10:31:41.146Z,27.45
2023-05-05T10:33:41.279Z,25.58
2023-05-05T10:34:41.255Z,26.01
2023-05-05T10:35:41.239Z,26.55
2023-05-05T10:36:41.232Z,26.97
2023-05-05T10:37:41.233Z,27.29
2023-05-05T10:38:41.292Z,27.57
2023-05-05T10:39:41.296Z,27.44
2023-05-05T10:40:41.565Z,27.13
2023-05-05T10:41:41.405Z,27.63
2023-05-05T10:42:41.492Z,28.00
2023-05-05T10:43:41.476Z,27.37
2023-05-05T10:44:41.504Z,27.15
2023-05-05T10:45:41.637Z,27.40
2023-05-05T10:46:41.696Z,28.03
2023-05-05T10:47:41.712Z,28.31
2023-05-05T10:48:41.757Z,28.25
2023-05-05T10:49:41.701Z,28.28
2023-05-05T10:50:41.758Z,28.40
2023-05-05T10:51:41.794Z,28.12
2023-05-05T10:52:41.808Z,27.86
2023-05-05T10:53:41.865Z,28.16
2023-05-05T10:54:41.916Z,28.15
2023-05-05T10:55:42.041Z,27.66
2023-05-05T10:56:41.988Z,27.68
2023-05-05T10:57:42.019Z,27.98
2023-05-05T10:58:58.419Z,27.50
2023-05-05T10:59:42.111Z,26.49
2023-05-05T11:00:42.122Z,26.13
2023-05-05T11:01:42.172Z,26.16
2023-05-05T11:02:43.042Z,26.55
2023-05-05T11:03:42.376Z,26.83
2023-05-05T11:04:42.280Z,26.98
2023-05-05T11:05:42.367Z,26.93
2023-05-05T11:06:42.360Z,26.82
2023-05-05T11:07:42.407Z,27.19
2023-05-05T11:08:42.467Z,27.35
2023-05-05T11:09:42.523Z,27.67
2023-05-05T11:10:42.567Z,27.97
2023-05-05T11:11:42.720Z,28.35
2023-05-05T11:12:42.651Z,27.91
2023-05-05T11:13:42.733Z,27.93
2023-05-05T11:14:42.741Z,28.06
2023-05-05T11:15:42.800Z,28.08
2023-05-05T11:16:42.890Z,28.23
2023-05-05T11:17:42.943Z,28.47
2023-05-05T11:18:42.953Z,28.27
2023-05-05T11:19:43.038Z,27.83
2023-05-05T11:20:43.072Z,27.73
2023-05-05T11:21:43.045Z,27.81
2023-05-05T11:22:43.101Z,28.06
2023-05-05T11:23:43.148Z,28.04
2023-05-05T11:24:43.181Z,27.58
2023-05-05T11:25:43.228Z,27.85
2023-05-05T11:26:43.413Z,28.37
2023-05-05T11:27:43.339Z,28.94
2023-05-05T11:28:43.309Z,29.09
2023-05-05T11:29:43.347Z,29.62
2023-05-05T11:30:43.434Z,29.69
2023-05-05T11:31:43.461Z,29.40
2023-05-05T11:32:43.515Z,29.32
2023-05-05T11:33:43.549Z,28.96
2023-05-05T11:34:43.616Z,29.06
2023-05-05T11:35:43.662Z,29.09
2023-05-05T11:36:43.699Z,29.57
2023-05-05T11:37:43.823Z,29.87
2023-05-05T11:38:43.788Z,30.29
2023-05-05T11:39:43.828Z,30.81
2023-05-05T11:40:43.808Z,30.69
2023-05-05T11:41:43.894Z,30.17
2023-05-05T11:42:43.869Z,30.05
2023-05-05T11:43:43.923Z,30.17
2023-05-05T11:44:43.954Z,30.56
2023-05-05T11:45:44.000Z,30.98
2023-05-05T11:46:44.057Z,30.98
2023-05-05T11:47:44.088Z,30.05
2023-05-05T11:48:44.101Z,30.17
2023-05-05T11:49:44.142Z,30.71
2023-05-05T11:50:44.197Z,30.39
2023-05-05T11:51:44.278Z,29.18
2023-05-05T11:52:44.408Z,28.67
2023-05-05T11:53:44.322Z,29.06
2023-05-05T11:54:44.262Z,29.40
2023-05-05T11:55:44.331Z,29.74
2023-05-05T11:56:44.365Z,28.59
2023-05-05T11:57:45.037Z,27.37
2023-05-05T11:58:44.499Z,26.76
2023-05-05T11:59:44.412Z,26.42
2023-05-05T12:00:44.426Z,26.08
2023-05-05T12:01:44.358Z,26.15
2023-05-05T12:02:44.515Z,26.49
2023-05-05T12:03:44.514Z,26.73
2023-05-05T12:04:44.522Z,26.53
2023-05-05T12:05:44.508Z,26.74
2023-05-05T12:06:44.530Z,26.78
2023-05-05T12:07:44.548Z,26.39
2023-05-05T12:08:44.615Z,26.27
2023-05-05T12:09:44.591Z,26.42
2023-05-05T12:10:44.628Z,26.73
2023-05-05T12:11:44.682Z,27.08
2023-05-05T12:12:44.759Z,27.25
2023-05-05T12:13:44.800Z,27.60
2023-05-05T12:14:44.860Z,27.61
2023-05-05T12:15:44.903Z,27.91
2023-05-05T12:16:45.060Z,28.27
2023-05-05T12:17:45.231Z,28.35
2023-05-05T12:18:44.972Z,28.38
2023-05-05T12:19:45.072Z,28.64
2023-05-05T12:20:45.042Z,29.18
2023-05-05T12:21:45.069Z,29.37
2023-05-05T12:22:45.123Z,29.58
2023-05-05T12:23:45.171Z,29.79
2023-05-05T12:24:45.201Z,29.25
2023-05-05T12:25:45.149Z,28.93
2023-05-05T12:26:45.197Z,29.61
2023-05-05T12:27:45.241Z,30.33
2023-05-05T12:28:45.282Z,30.58
2023-05-05T12:29:45.284Z,30.59
2023-05-05T12:30:45.361Z,30.93
2023-05-05T12:31:45.455Z,31.02
2023-05-05T12:32:45.478Z,31.05
2023-05-05T12:33:45.383Z,31.13
2023-05-05T12:34:45.421Z,31.13
2023-05-05T12:35:45.468Z,30.51
2023-05-05T12:36:45.505Z,30.51
2023-05-05T12:37:45.579Z,30.31
2023-05-05T12:38:45.617Z,29.90
2023-05-05T12:39:45.671Z,29.44
2023-05-05T12:40:45.794Z,28.84
2023-05-05T12:41:45.704Z,28.46
2023-05-05T12:42:46.332Z,28.67
2023-05-05T12:43:45.804Z,28.84
2023-05-05T12:44:45.848Z,28.89
2023-05-05T12:45:45.939Z,29.13
2023-05-05T12:46:45.946Z,29.03
2023-05-05T12:47:46.042Z,28.64
2023-05-05T12:48:48.371Z,28.56
2023-05-05T12:49:56.927Z,28.38
2023-05-05T12:50:46.088Z,28.16
2023-05-05T12:51:46.052Z,27.97
2023-05-05T12:52:46.118Z,27.86
2023-05-05T12:53:46.201Z,27.68
2023-05-05T12:54:46.169Z,27.78
2023-05-05T12:55:46.220Z,27.86
2023-05-05T12:56:46.280Z,28.03
2023-05-05T12:57:46.329Z,27.85
2023-05-05T12:58:46.309Z,27.81
2023-05-05T12:59:46.394Z,27.83
2023-05-05T13:00:46.452Z,28.04
2023-05-05T13:01:46.524Z,28.22
2023-05-05T13:02:46.504Z,28.04
2023-05-05T13:03:46.517Z,28.10
2023-05-05T13:04:46.592Z,27.53
2023-05-05T13:05:46.867Z,26.88
2023-05-05T13:06:46.688Z,27.07
2023-05-05T13:07:46.678Z,26.97
2023-05-05T13:08:46.645Z,26.91
2023-05-05T13:09:46.698Z,27.03
2023-05-05T13:10:46.748Z,27.00
2023-05-05T13:11:46.792Z,27.07
2023-05-05T13:12:46.874Z,27.30
2023-05-05T13:13:46.892Z,27.20
2023-05-05T13:14:46.951Z,27.00
2023-05-05T13:15:47.054Z,26.98
2023-05-05T13:16:47.005Z,27.05
2023-05-05T13:17:47.106Z,27.23
2023-05-05T13:18:47.108Z,27.05
2023-05-05T13:19:47.163Z,26.86
2023-05-05T13:20:47.180Z,26.97
2023-05-05T13:21:47.240Z,26.98
2023-05-05T13:22:47.433Z,26.98
2023-05-05T13:23:47.316Z,26.92